createdAt,value
2023-01-19T00:01:29.316Z,24.83
2023-01-19T00:03:57.316Z,23.77
2023-01-19T00:06:25.264Z,23.15
2023-01-19T00:08:53.239Z,24.08
2023-01-19T00:11:21.410Z,28.40
2023-01-19T00:13:51.125Z,28.05
2023-01-19T00:16:22.996Z,19.48
2023-01-19T00:18:54.016Z,22.92
2023-01-19T00:21:22.750Z,26.17
2023-01-19T00:23:52.652Z,25.63
2023-01-19T00:26:22.349Z,29.40
2023-01-19T00:28:51.120Z,19.48
2023-01-19T00:31:21.848Z,21.25
2023-01-19T00:33:51.630Z,26.00
2023-01-19T00:36:21.735Z,23.05
2023-01-19T00:38:49.621Z,24.23
2023-01-19T00:41:17.633Z,23.17
2023-01-19T00:43:44.848Z,27.02
2023-01-19T00:46:12.857Z,30.73
2023-01-19T00:48:40.819Z,28.88
2023-01-19T00:51:08.938Z,21.65
2023-01-19T00:53:38.260Z,29.77
2023-01-19T00:56:06.908Z,25.02
2023-01-19T00:58:34.823Z,23.23
2023-01-19T01:01:04.872Z,20.48
2023-01-19T01:03:33.646Z,28.95
2023-01-19T01:06:01.669Z,24.65
2023-01-19T01:08:29.809Z,23.58
2023-01-19T01:10:59.202Z,20.20
2023-01-19T01:13:28.326Z,16.42
2023-01-19T01:15:58.238Z,21.27
2023-01-19T01:18:26.604Z,16.50
2023-01-19T01:20:56.315Z,15.68
2023-01-19T01:23:24.456Z,19.45
2023-01-19T01:25:52.380Z,15.90
2023-01-19T01:28:21.760Z,15.10
2023-01-19T01:30:49.745Z,23.50
2023-01-19T01:33:40.404Z,14.00
2023-01-19T01:36:06.291Z,23.60
2023-01-19T01:38:34.428Z,18.02
2023-01-19T01:41:02.407Z,18.45
2023-01-19T01:43:45.717Z,17.95
2023-01-19T01:46:16.293Z,19.27
2023-01-19T01:48:49.966Z,21.80
2023-01-19T01:51:26.425Z,16.42
2023-01-19T01:54:08.020Z,25.65
2023-01-19T01:56:38.928Z,17.88
2023-01-19T01:59:13.583Z,14.95
2023-01-19T02:01:58.839Z,14.07
2023-01-19T02:04:28.227Z,14.73
2023-01-19T02:07:13.543Z,14.45
2023-01-19T02:09:59.077Z,14.18
2023-01-19T02:12:44.690Z,13.02
2023-01-19T02:15:20.266Z,9.35
2023-01-19T02:17:48.976Z,18.98
2023-01-19T02:20:17.817Z,13.02
2023-01-19T02:22:51.007Z,13.60
2023-01-19T02:25:21.200Z,13.23
2023-01-19T02:27:50.258Z,10.02
2023-01-19T02:30:18.981Z,11.27
2023-01-19T02:32:47.106Z,11.45
2023-01-19T02:35:15.271Z,11.32
2023-01-19T02:37:45.546Z,9.02
2023-01-19T02:40:16.325Z,10.55
2023-01-19T02:42:49.758Z,14.07
2023-01-19T02:45:21.730Z,14.00
2023-01-19T02:47:52.607Z,13.48
2023-01-19T02:50:41.833Z,12.05
2023-01-19T02:54:03.412Z,13.85
2023-01-19T02:57:06.791Z,9.25
2023-01-19T02:59:49.218Z,10.30
2023-01-19T03:02:29.080Z,7.65
2023-01-19T03:05:17.380Z,14.13
2023-01-19T03:07:54.708Z,8.68
2023-01-19T03:10:33.151Z,10.10
2023-01-19T03:13:08.410Z,11.10
2023-01-19T03:15:44.876Z,14.02
2023-01-19T03:18:15.965Z,12.00
2023-01-19T03:20:45.528Z,9.80
2023-01-19T03:23:16.709Z,17.63
2023-01-19T03:25:47.758Z,23.73
2023-01-19T03:28:18.540Z,20.08
2023-01-19T03:30:54.750Z,18.38
2023-01-19T03:33:28.016Z,21.13
2023-01-19T03:36:03.795Z,15.80
2023-01-19T03:38:35.632Z,19.23
2023-01-19T03:41:05.935Z,15.80
2023-01-19T03:43:36.454Z,12.20
2023-01-19T03:46:07.573Z,16.67
2023-01-19T03:48:35.861Z,27.25
2023-01-19T03:51:05.449Z,16.35
2023-01-19T03:53:33.524Z,11.73
2023-01-19T03:56:01.798Z,20.65
2023-01-19T03:58:29.751Z,15.13
2023-01-19T04:00:57.781Z,14.77
2023-01-19T04:03:27.116Z,15.15
2023-01-19T04:05:57.522Z,10.52
2023-01-19T04:08:25.444Z,11.02
2023-01-19T04:10:53.411Z,14.73
2023-01-19T04:13:21.381Z,9.48
2023-01-19T04:15:49.380Z,10.00
2023-01-19T04:18:17.416Z,8.50
2023-01-19T04:20:46.960Z,9.23
2023-01-19T04:23:14.835Z,11.52
2023-01-19T04:25:42.766Z,10.07
2023-01-19T04:28:10.641Z,12.48
2023-01-19T04:30:38.913Z,7.88
2023-01-19T04:33:07.105Z,9.18
2023-01-19T04:35:35.585Z,10.65
2023-01-19T04:38:04.971Z,5.90
2023-01-19T04:40:32.977Z,5.45
2023-01-19T04:43:01.356Z,7.78
2023-01-19T04:45:29.498Z,11.02
2023-01-19T04:47:57.479Z,7.75
2023-01-19T04:50:25.620Z,6.03
2023-01-19T04:52:53.615Z,7.40
2023-01-19T04:55:22.953Z,5.80
2023-01-19T04:57:50.989Z,11.75
2023-01-19T05:00:20.882Z,7.47
2023-01-19T05:02:49.102Z,9.00
2023-01-19T05:05:17.637Z,10.20
2023-01-19T05:07:45.731Z,18.20
2023-01-19T05:10:13.931Z,13.93
2023-01-19T05:12:43.334Z,7.95
2023-01-19T05:15:12.026Z,9.73
2023-01-19T05:17:39.912Z,6.95
2023-01-19T05:20:10.463Z,13.07
2023-01-19T05:22:38.490Z,9.25
2023-01-19T05:25:08.819Z,9.70
2023-01-19T05:27:37.156Z,13.07
2023-01-19T05:30:07.972Z,10.05
2023-01-19T05:32:35.966Z,12.65
2023-01-19T05:35:03.962Z,9.77
2023-01-19T05:37:32.716Z,11.68
2023-01-19T05:40:00.691Z,14.25
2023-01-19T05:42:28.944Z,9.70
2023-01-19T05:44:57.479Z,14.30
2023-01-19T05:47:27.019Z,10.63
2023-01-19T05:49:55.252Z,13.63
2023-01-19T05:52:25.008Z,10.85
2023-01-19T05:54:55.179Z,9.80
2023-01-19T05:57:23.369Z,8.57
2023-01-19T05:59:51.467Z,14.43
2023-01-19T06:02:19.424Z,17.92
2023-01-19T06:04:48.754Z,10.35
2023-01-19T06:07:16.718Z,10.52
2023-01-19T06:09:44.687Z,13.45
2023-01-19T06:12:12.589Z,11.73
2023-01-19T06:14:40.963Z,13.50
2023-01-19T06:17:08.900Z,10.80
2023-01-19T06:19:36.942Z,10.68
2023-01-19T06:22:06.390Z,9.88
2023-01-19T06:24:34.358Z,10.68
2023-01-19T06:27:02.265Z,13.18
2023-01-19T06:29:30.202Z,10.13
2023-01-19T06:31:58.253Z,9.18
2023-01-19T06:34:29.092Z,13.15
2023-01-19T06:36:57.335Z,9.80
2023-01-19T06:39:27.541Z,10.70
2023-01-19T06:41:55.527Z,8.52
2023-01-19T06:44:23.487Z,8.35
2023-01-19T06:46:51.399Z,10.27
2023-01-19T06:49:39.357Z,16.15
2023-01-19T06:52:07.922Z,14.88
2023-01-19T06:54:37.380Z,15.95
2023-01-19T06:57:06.149Z,13.93
2023-01-19T06:59:34.146Z,12.52
2023-01-19T07:02:26.461Z,13.00
2023-01-19T07:04:50.064Z,23.42
2023-01-19T07:07:18.025Z,12.98
2023-01-19T07:09:47.411Z,15.30
2023-01-19T07:12:16.047Z,16.88
2023-01-19T07:14:44.220Z,10.35
2023-01-19T07:17:13.438Z,10.23
2023-01-19T07:19:41.420Z,7.53
2023-01-19T07:22:09.331Z,9.20
2023-01-19T07:24:38.260Z,11.05
2023-01-19T07:27:07.706Z,6.85
2023-01-19T07:29:35.664Z,16.08
2023-01-19T07:32:03.613Z,7.93
2023-01-19T07:34:31.811Z,7.57
2023-01-19T07:36:59.762Z,5.82
2023-01-19T07:39:27.947Z,12.27
2023-01-19T07:41:55.825Z,7.05
2023-01-19T07:44:25.086Z,7.60
2023-01-19T07:46:52.995Z,9.18
2023-01-19T07:49:21.768Z,11.88
2023-01-19T07:51:49.731Z,6.25
2023-01-19T07:54:17.627Z,12.73
2023-01-19T07:56:45.584Z,7.90
2023-01-19T07:59:13.664Z,9.60
2023-01-19T08:01:43.182Z,6.50
2023-01-19T08:04:11.688Z,13.18
2023-01-19T08:06:41.617Z,13.13
2023-01-19T08:09:10.114Z,7.38
2023-01-19T08:11:38.088Z,8.70
2023-01-19T08:14:07.939Z,10.38
2023-01-19T08:16:36.186Z,10.98
2023-01-19T08:19:05.735Z,7.93
2023-01-19T08:21:35.674Z,6.43
2023-01-19T08:24:03.667Z,8.50
2023-01-19T08:26:33.689Z,10.88
2023-01-19T08:29:03.316Z,13.32
2023-01-19T08:31:31.656Z,14.27
2023-01-19T08:34:00.191Z,14.80
2023-01-19T08:36:29.532Z,13.05
2023-01-19T08:38:57.456Z,8.50
2023-01-19T08:41:25.352Z,8.85
2023-01-19T08:43:53.271Z,8.57
2023-01-19T08:46:22.016Z,7.35
2023-01-19T08:48:50.550Z,8.38
2023-01-19T08:51:19.256Z,11.32
2023-01-19T08:53:48.691Z,17.05
2023-01-19T08:56:18.011Z,11.98
2023-01-19T08:58:53.647Z,9.77
2023-01-19T09:01:31.517Z,9.88
2023-01-19T09:03:59.514Z,5.95
2023-01-19T09:06:28.495Z,11.82
2023-01-19T09:08:58.170Z,6.90
2023-01-19T09:11:26.101Z,8.93
2023-01-19T09:13:54.234Z,8.98
2023-01-19T09:16:22.382Z,5.78
2023-01-19T09:18:50.348Z,9.20
2023-01-19T09:21:18.729Z,6.70
2023-01-19T09:23:46.613Z,16.20
2023-01-19T09:26:16.980Z,6.35
2023-01-19T09:28:44.908Z,10.52
2023-01-19T09:31:13.423Z,4.78
2023-01-19T09:33:41.960Z,8.88
2023-01-19T09:36:34.747Z,8.85
2023-01-19T09:44:20.599Z,6.28
2023-01-19T09:46:48.559Z,8.85
2023-01-19T09:49:18.442Z,7.60
2023-01-19T09:51:49.143Z,10.32
2023-01-19T09:54:19.618Z,9.02
2023-01-19T09:56:52.433Z,15.13
2023-01-19T09:59:25.319Z,6.85
2023-01-19T10:02:07.049Z,6.28
2023-01-19T10:04:51.332Z,11.25
2023-01-19T10:13:39.889Z,9.70
2023-01-19T10:16:23.320Z,12.05
2023-01-19T10:19:12.990Z,13.05
2023-01-19T10:21:44.481Z,9.45
2023-01-19T10:24:19.516Z,10.82
2023-01-19T10:26:49.937Z,11.90
2023-01-19T10:29:26.109Z,10.88
2023-01-19T10:35:23.520Z,10.32
2023-01-19T10:37:52.987Z,10.35
2023-01-19T10:40:33.252Z,17.25
2023-01-19T10:43:01.671Z,15.77
2023-01-19T10:45:32.278Z,24.95
2023-01-19T10:48:07.489Z,12.50
2023-01-19T10:50:39.896Z,38.03
2023-01-19T10:53:19.216Z,16.05
2023-01-19T10:55:47.331Z,15.55
2023-01-19T10:58:29.781Z,9.80
2023-01-19T11:01:14.749Z,11.35
2023-01-19T11:03:44.529Z,10.20
2023-01-19T11:06:25.403Z,9.43
2023-01-19T11:08:54.775Z,10.77
2023-01-19T11:11:24.736Z,19.52
2023-01-19T11:14:10.140Z,10.23
2023-01-19T11:16:40.159Z,10.05
2023-01-19T11:19:20.292Z,10.15
2023-01-19T11:21:48.506Z,10.93
2023-01-19T11:24:16.674Z,8.75
2023-01-19T11:26:48.043Z,11.27
2023-01-19T11:29:19.967Z,12.77
2023-01-19T11:31:49.082Z,11.45
2023-01-19T11:34:32.903Z,8.10
2023-01-19T11:37:03.045Z,7.07
2023-01-19T11:39:33.157Z,12.10
2023-01-19T11:42:04.394Z,8.32
2023-01-19T11:44:36.532Z,9.10
2023-01-19T11:47:09.534Z,8.73
2023-01-19T11:49:45.345Z,8.93
2023-01-19T11:52:21.319Z,10.60
2023-01-19T11:54:57.766Z,11.70
2023-01-19T11:57:26.082Z,12.05
2023-01-19T11:59:56.376Z,6.88
2023-01-19T12:02:29.693Z,17.75
2023-01-19T12:05:05.759Z,13.43
2023-01-19T12:07:37.680Z,5.82
2023-01-19T12:10:20.970Z,14.52
2023-01-19T12:12:49.566Z,11.57
2023-01-19T12:15:31.798Z,9.02
2023-01-19T12:18:03.395Z,5.85
2023-01-19T12:20:38.727Z,8.25
2023-01-19T12:23:21.074Z,8.30
2023-01-19T12:26:00.773Z,10.07
2023-01-19T12:28:31.517Z,13.05
2023-01-19T12:31:02.139Z,7.90
2023-01-19T12:33:38.155Z,10.35
2023-01-19T12:36:14.419Z,11.68
2023-01-19T12:38:47.570Z,7.05
2023-01-19T12:41:24.832Z,11.95
2023-01-19T12:44:25.339Z,11.80
2023-01-19T12:46:57.443Z,11.98
2023-01-19T12:49:29.249Z,11.13
2023-01-19T12:52:17.406Z,7.80
2023-01-19T12:54:54.524Z,15.27
2023-01-19T12:57:26.764Z,9.90
2023-01-19T12:59:59.700Z,10.85
2023-01-19T13:02:47.037Z,9.10
2023-01-19T13:05:18.746Z,16.23
2023-01-19T13:08:17.087Z,12.65
2023-01-19T13:11:19.736Z,8.07
2023-01-19T13:14:27.621Z,11.90
2023-01-19T13:17:05.595Z,10.90
2023-01-19T13:19:48.236Z,9.23
2023-01-19T13:23:04.832Z,8.68
2023-01-19T13:25:36.729Z,14.55
2023-01-19T13:28:12.091Z,16.17
2023-01-19T13:30:50.107Z,10.15
2023-01-19T13:33:22.909Z,13.38
2023-01-19T13:35:58.684Z,15.55
2023-01-19T13:38:29.808Z,8.02
2023-01-19T13:41:03.226Z,10.50
2023-01-19T13:43:37.142Z,9.20
2023-01-19T13:48:34.228Z,8.23
2023-01-19T13:51:05.176Z,9.60
2023-01-19T13:53:34.244Z,8.23
2023-01-19T13:56:17.644Z,10.07
2023-01-19T13:58:58.153Z,15.25
2023-01-19T14:01:29.258Z,5.50
2023-01-19T14:03:58.064Z,8.40
2023-01-19T14:06:34.787Z,16.13
2023-01-19T14:09:23.998Z,9.88
2023-01-19T14:12:17.629Z,9.15
2023-01-19T14:14:48.386Z,9.60
2023-01-19T14:17:25.271Z,8.82
2023-01-19T14:19:54.870Z,7.95
2023-01-19T14:22:22.929Z,11.27
2023-01-19T14:24:50.891Z,10.10
2023-01-19T14:27:25.313Z,6.25
2023-01-19T14:29:55.020Z,8.10
2023-01-19T14:32:24.464Z,8.20
2023-01-19T14:35:16.376Z,12.38
2023-01-19T14:37:50.178Z,11.40
2023-01-19T14:40:21.912Z,14.10
2023-01-19T14:42:54.564Z,7.75
2023-01-19T14:45:26.627Z,6.93
2023-01-19T14:47:57.887Z,8.90
2023-01-19T14:50:27.830Z,8.63
2023-01-19T14:53:00.394Z,6.82
2023-01-19T14:55:34.863Z,10.75
2023-01-19T14:58:11.201Z,7.18
2023-01-19T15:00:39.362Z,6.95
2023-01-19T15:03:07.458Z,8.70
2023-01-19T15:05:35.831Z,9.40
2023-01-19T15:08:05.412Z,9.15
2023-01-19T15:10:33.728Z,5.88
2023-01-19T15:13:02.145Z,10.65
2023-01-19T15:15:33.282Z,37.72
2023-01-19T15:18:03.783Z,48.97
2023-01-19T15:20:32.140Z,23.67
2023-01-19T15:23:00.093Z,42.17
2023-01-19T15:25:28.058Z,21.73
2023-01-19T15:27:59.850Z,20.33
2023-01-19T15:30:31.055Z,10.93
2023-01-19T15:33:20.809Z,12.63
2023-01-19T15:35:49.105Z,14.55
2023-01-19T15:38:17.101Z,7.30
2023-01-19T15:40:45.008Z,6.82
2023-01-19T15:43:12.959Z,8.00
2023-01-19T15:45:43.519Z,9.20
2023-01-19T15:48:13.205Z,9.63
2023-01-19T15:50:44.098Z,6.63
2023-01-19T15:53:15.865Z,11.20
2023-01-19T15:55:43.832Z,12.80
2023-01-19T15:58:13.982Z,10.20
2023-01-19T16:00:42.556Z,11.15
2023-01-19T16:03:11.883Z,9.52
2023-01-19T16:05:43.751Z,11.35
2023-01-19T16:08:13.383Z,7.95
2023-01-19T16:10:42.188Z,7.40
2023-01-19T16:13:10.851Z,16.83
2023-01-19T16:15:42.330Z,17.05
2023-01-19T16:18:10.319Z,14.10
2023-01-19T16:20:38.309Z,8.45
2023-01-19T16:23:21.363Z,14.43
2023-01-19T16:25:58.910Z,10.63
2023-01-19T16:28:27.731Z,12.13
2023-01-19T16:30:55.770Z,10.65
2023-01-19T16:33:23.769Z,12.05
2023-01-19T16:35:51.722Z,8.00
2023-01-19T16:38:20.119Z,11.20
2023-01-19T16:40:48.440Z,18.20
2023-01-19T16:43:18.680Z,13.57
2023-01-19T16:46:01.149Z,16.48
2023-01-19T16:48:29.593Z,15.10
2023-01-19T16:51:02.887Z,12.38
2023-01-19T16:53:31.784Z,15.85
2023-01-19T16:55:59.779Z,13.30
2023-01-19T16:58:29.136Z,13.45
2023-01-19T17:00:57.140Z,13.02
2023-01-19T17:03:25.142Z,13.57
2023-01-19T17:05:53.111Z,8.82
2023-01-19T17:08:21.952Z,11.70
2023-01-19T17:10:49.893Z,12.02
2023-01-19T17:13:18.012Z,13.73
2023-01-19T17:15:47.365Z,7.05
2023-01-19T17:18:15.316Z,8.95
2023-01-19T17:20:43.244Z,10.82
2023-01-19T17:23:11.170Z,11.23
2023-01-19T17:25:39.150Z,11.60
2023-01-19T17:28:07.064Z,9.77
2023-01-19T17:30:35.104Z,9.90
2023-01-19T17:33:04.509Z,8.30
2023-01-19T17:35:35.191Z,7.38
2023-01-19T17:38:03.103Z,16.10
2023-01-19T17:40:31.485Z,9.23
2023-01-19T17:42:59.698Z,11.60
2023-01-19T17:45:27.729Z,13.95
2023-01-19T17:47:55.619Z,11.32
2023-01-19T17:50:24.977Z,11.13
2023-01-19T17:52:52.952Z,10.30
2023-01-19T17:55:21.020Z,14.95
2023-01-19T17:57:49.071Z,11.30
2023-01-19T18:00:18.083Z,12.13
2023-01-19T18:02:46.081Z,12.48
2023-01-19T18:05:14.815Z,23.85
2023-01-19T18:07:44.215Z,16.02
2023-01-19T18:10:13.892Z,10.98
2023-01-19T18:12:42.044Z,19.77
2023-01-19T18:15:10.886Z,12.45
2023-01-19T18:17:40.816Z,11.43
2023-01-19T18:20:10.319Z,14.02
2023-01-19T18:22:38.394Z,13.93
2023-01-19T18:25:08.458Z,16.75
2023-01-19T18:27:36.367Z,19.75
2023-01-19T18:30:04.482Z,22.10
2023-01-19T18:32:32.405Z,16.90
2023-01-19T18:35:00.976Z,18.92
2023-01-19T18:37:28.929Z,25.27
2023-01-19T18:39:59.781Z,22.27
2023-01-19T18:42:29.367Z,23.85
2023-01-19T18:44:57.383Z,26.05
2023-01-19T18:47:25.451Z,24.23
2023-01-19T18:49:53.416Z,27.73
2023-01-19T18:52:21.376Z,22.38
2023-01-19T18:54:49.575Z,27.02
2023-01-19T18:57:17.964Z,30.60
2023-01-19T18:59:48.883Z,32.50
2023-01-19T19:02:16.855Z,28.30
2023-01-19T19:04:44.867Z,27.10
2023-01-19T19:07:13.443Z,28.77
2023-01-19T19:09:42.742Z,24.38
2023-01-19T19:12:11.026Z,19.63
2023-01-19T19:14:39.417Z,23.92
2023-01-19T19:17:10.344Z,15.15
2023-01-19T19:19:40.823Z,18.92
2023-01-19T19:22:09.069Z,23.02
2023-01-19T19:24:38.241Z,18.77
2023-01-19T19:27:06.923Z,18.48
2023-01-19T19:29:35.240Z,15.10
2023-01-19T19:32:03.266Z,24.23
2023-01-19T19:34:33.383Z,20.60
2023-01-19T19:37:01.531Z,8.82
2023-01-19T19:39:29.750Z,10.40
2023-01-19T19:41:57.628Z,7.82
2023-01-19T19:44:25.578Z,9.43
2023-01-19T19:46:53.522Z,9.18
2023-01-19T19:49:21.555Z,7.90
2023-01-19T19:51:51.000Z,7.00
2023-01-19T19:54:18.906Z,6.90
2023-01-19T19:56:48.443Z,6.68
2023-01-19T19:59:16.356Z,7.05
2023-01-19T20:01:45.393Z,9.95
2023-01-19T20:04:14.814Z,8.48
2023-01-19T20:06:44.923Z,4.28
2023-01-19T20:09:15.231Z,4.82
2023-01-19T20:11:44.277Z,4.13
2023-01-19T20:14:14.382Z,5.22
2023-01-19T20:16:42.350Z,5.88
2023-01-19T20:19:10.605Z,6.43
2023-01-19T20:21:41.883Z,5.70
2023-01-19T20:24:13.892Z,8.02
2023-01-19T20:26:45.186Z,21.30
2023-01-19T20:29:13.125Z,8.98
2023-01-19T20:31:44.468Z,8.65
2023-01-19T20:34:14.881Z,5.53
2023-01-19T20:36:44.356Z,7.55
2023-01-19T20:39:12.810Z,9.68
2023-01-19T20:41:45.179Z,8.13
2023-01-19T20:44:16.726Z,8.43
2023-01-19T20:46:44.679Z,8.70
2023-01-19T20:49:12.991Z,8.82
2023-01-19T20:51:43.468Z,8.88
2023-01-19T20:54:12.079Z,10.27
2023-01-19T20:56:42.822Z,8.93
2023-01-19T20:59:12.414Z,5.82
2023-01-19T21:01:42.596Z,8.05
2023-01-19T21:04:13.771Z,9.98
2023-01-19T21:06:42.625Z,9.57
2023-01-19T21:09:14.248Z,7.95
2023-01-19T21:11:44.769Z,8.57
2023-01-19T21:14:17.686Z,10.13
2023-01-19T21:16:48.602Z,9.70
2023-01-19T21:19:18.327Z,11.52
2023-01-19T21:21:48.738Z,9.50
2023-01-19T21:24:16.709Z,8.77
2023-01-19T21:26:48.340Z,9.30
2023-01-19T21:29:16.374Z,10.30
2023-01-19T21:31:47.801Z,13.02
2023-01-19T21:34:17.929Z,7.97
2023-01-19T21:36:47.931Z,8.77
2023-01-19T21:39:17.374Z,6.32
2023-01-19T21:41:45.472Z,6.57
2023-01-19T21:44:14.442Z,7.85
2023-01-19T21:46:43.520Z,8.35
2023-01-19T21:49:18.418Z,6.22
2023-01-19T21:51:47.985Z,6.15
2023-01-19T21:54:16.070Z,9.35
2023-01-19T21:56:44.197Z,5.80
2023-01-19T21:59:14.777Z,5.45
2023-01-19T22:01:44.515Z,4.72
2023-01-19T22:04:12.815Z,6.28
2023-01-19T22:06:42.183Z,4.50
2023-01-19T22:09:10.128Z,6.28
2023-01-19T22:11:38.099Z,4.53
2023-01-19T22:14:06.370Z,4.88
2023-01-19T22:16:34.370Z,7.70
2023-01-19T22:19:02.740Z,7.15
2023-01-19T22:21:33.467Z,7.68
2023-01-19T22:24:04.807Z,4.70
2023-01-19T22:26:34.869Z,3.47
2023-01-19T22:31:40.893Z,4.35
2023-01-19T22:34:10.427Z,9.13
2023-01-19T22:36:39.459Z,5.45
2023-01-19T22:39:10.687Z,6.05
2023-01-19T22:41:40.708Z,4.55
2023-01-19T22:44:11.567Z,8.38
2023-01-19T22:46:39.876Z,7.95
2023-01-19T22:49:08.842Z,5.47
2023-01-19T22:51:37.413Z,6.90
2023-01-19T22:54:05.805Z,6.97
2023-01-19T22:56:37.113Z,8.93
2023-01-19T22:59:05.674Z,8.43
2023-01-19T23:01:36.128Z,9.93
2023-01-19T23:04:05.656Z,7.32
2023-01-19T23:06:35.150Z,6.90
2023-01-19T23:09:05.561Z,5.38
2023-01-19T23:11:37.472Z,4.68
2023-01-19T23:14:07.060Z,8.00
2023-01-19T23:16:35.146Z,12.25
2023-01-19T23:19:03.316Z,8.50
2023-01-19T23:21:33.267Z,12.60
2023-01-19T23:24:02.961Z,13.38
2023-01-19T23:26:38.053Z,7.28
2023-01-19T23:29:09.493Z,4.90
2023-01-19T23:31:38.811Z,5.20
2023-01-19T23:34:08.517Z,3.22
2023-01-19T23:36:38.400Z,3.78
2023-01-19T23:39:09.941Z,3.55
2023-01-19T23:41:37.960Z,3.33
2023-01-19T23:44:07.354Z,2.53
2023-01-19T23:46:35.459Z,3.67
2023-01-19T23:49:03.456Z,3.33
2023-01-19T23:51:33.193Z,5.28
2023-01-19T23:54:01.908Z,9.82
2023-01-19T23:56:32.945Z,7.35
2023-01-19T23:59:03.710Z,3.72
